Time;durP1;ratioP1;P1;durP2;ratioP2;P2;SDS_P1;SDS_P2;PMS_P1;PMS_P2;Temp;Humidity;BMP_temperature;BMP_pressure;BME280_temperature;BME280_humidity;BME280_pressure;Samples;Min_cycle;Max_cycle;Signal;HPM_P1;HPM_P2
2021/03/10 00:01:04;;;;;;;11.40;3.05;;;;;;;0.65;65.99;100966.69;5064531;28;20489;-66
2021/03/10 00:03:29;;;;;;;6.60;3.47;;;;;;;0.59;66.04;100966.44;5064519;28;20028;-65
2021/03/10 00:05:54;;;;;;;6.93;3.30;;;;;;;0.61;66.03;100972.44;5064437;28;20036;-65
2021/03/10 00:08:20;;;;;;;6.45;2.78;;;;;;;0.59;66.11;100977.50;5064303;28;20013;-65
2021/03/10 00:10:45;;;;;;;5.70;2.30;;;;;;;0.54;66.18;100971.34;5064177;28;20021;-66
2021/03/10 00:13:11;;;;;;;22.63;5.45;;;;;;;0.57;65.99;100970.59;5064570;28;20029;-66
2021/03/10 00:15:36;;;;;;;4.82;3.00;;;;;;;0.56;66.21;100974.81;5064199;28;20391;-67
2021/03/10 00:18:01;;;;;;;7.90;2.60;;;;;;;0.59;66.05;100980.06;5045999;28;20025;-66
2021/03/10 00:20:27;;;;;;;5.15;2.40;;;;;;;0.60;66.04;100983.50;5063997;28;20092;-65
2021/03/10 00:22:52;;;;;;;8.05;2.50;;;;;;;0.61;65.99;100983.56;5064078;28;20017;-66
2021/03/10 00:25:18;;;;;;;9.73;2.58;;;;;;;0.61;66.26;100977.56;5063602;28;20112;-65
2021/03/10 00:27:44;;;;;;;5.22;2.58;;;;;;;0.67;65.92;100977.81;5064262;28;20028;-65
2021/03/10 00:30:10;;;;;;;9.57;3.00;;;;;;;0.63;65.88;100981.06;5046069;28;20029;-65
2021/03/10 00:32:37;;;;;;;5.50;2.70;;;;;;;0.58;65.86;100967.22;5063869;28;20025;-65
2021/03/10 00:35:04;;;;;;;5.18;2.30;;;;;;;0.61;65.91;100980.13;5045936;28;20025;-65
2021/03/10 00:37:29;;;;;;;4.88;2.63;;;;;;;0.58;65.84;100980.00;5063548;28;20031;-65
2021/03/10 00:39:55;;;;;;;6.93;2.38;;;;;;;0.53;66.05;100972.13;5063762;28;20116;-65
2021/03/10 00:42:20;;;;;;;7.93;2.22;;;;;;;0.51;66.28;100986.56;5063633;28;20080;-65
2021/03/10 00:44:46;;;;;;;4.95;2.55;;;;;;;0.44;66.60;100980.31;5063955;28;20458;-68
2021/03/10 00:47:13;;;;;;;5.30;2.22;;;;;;;0.45;66.42;100981.16;5045933;28;20033;-65
2021/03/10 00:49:42;;;;;;;2.20;1.42;;;;;;;0.39;66.81;100981.78;5063733;28;20039;-64
2021/03/10 00:52:08;;;;;;;6.95;2.08;;;;;;;0.35;66.80;100974.81;5063520;28;20085;-64
2021/03/10 00:54:34;;;;;;;3.72;1.60;;;;;;;0.33;66.50;100971.31;5062716;28;20048;-65
2021/03/10 00:57:00;;;;;;;3.90;1.17;;;;;;;0.31;67.01;100975.47;5063218;28;20094;-66
2021/03/10 00:59:25;;;;;;;3.08;1.98;;;;;;;0.27;66.86;100988.91;5063340;28;20481;-65
2021/03/10 01:01:51;;;;;;;1.45;1.08;;;;;;;0.22;67.19;100992.13;5063759;28;20017;-66
2021/03/10 01:04:16;;;;;;;2.85;1.60;;;;;;;0.20;67.15;100992.88;5063603;28;20025;-65
2021/03/10 01:06:41;;;;;;;2.95;1.00;;;;;;;0.18;67.12;100985.16;5063254;28;20093;-65
2021/03/10 01:09:08;;;;;;;1.80;1.20;;;;;;;0.17;67.20;100992.75;5063298;28;20082;-65
2021/03/10 01:11:34;;;;;;;4.47;1.65;;;;;;;0.18;66.71;100989.38;5063099;28;20029;-65
2021/03/10 01:14:00;;;;;;;4.05;1.63;;;;;;;0.07;67.23;100987.25;5063404;28;20159;-65
2021/03/10 01:16:26;;;;;;;4.22;1.67;;;;;;;0.09;67.18;100987.31;5061833;28;20080;-65
2021/03/10 01:18:52;;;;;;;2.47;1.33;;;;;;;0.05;67.04;100983.72;5063524;28;20086;-66
2021/03/10 01:21:17;;;;;;;3.72;1.20;;;;;;;0.02;66.98;100990.41;5063475;28;20025;-65
2021/03/10 01:23:42;;;;;;;3.33;1.83;;;;;;;-0.04;67.07;100986.78;5063220;28;20021;-65
2021/03/10 01:26:08;;;;;;;3.28;1.15;;;;;;;0.05;67.01;100990.53;5062873;28;20053;-65
2021/03/10 01:28:33;;;;;;;0.93;0.65;;;;;;;0.15;66.54;100992.69;5063226;28;20017;-66
2021/03/10 01:30:58;;;;;;;3.03;1.17;;;;;;;0.15;66.17;100986.69;5045215;28;20029;-64
2021/03/10 01:33:24;;;;;;;2.10;1.08;;;;;;;0.12;66.43;100982.34;5063288;28;20017;-64
2021/03/10 01:35:49;;;;;;;2.38;1.17;;;;;;;0.13;66.12;100985.78;5063013;28;20025;-64
2021/03/10 01:38:14;;;;;;;7.25;1.42;;;;;;;-0.20;67.10;100969.91;5063231;28;20105;-66
2021/03/10 01:40:40;;;;;;;2.42;1.02;;;;;;;-0.13;66.77;100966.78;5063071;28;20021;-66
2021/03/10 01:43:07;;;;;;;3.58;1.30;;;;;;;-0.29;67.26;100966.94;5063021;28;20021;-66
2021/03/10 01:45:34;;;;;;;1.88;1.10;;;;;;;-0.31;67.53;100978.75;5063022;28;20021;-66
2021/03/10 01:48:01;;;;;;;4.20;1.35;;;;;;;-0.34;67.60;100976.03;5063105;28;20084;-66
2021/03/10 01:50:27;;;;;;;3.30;0.90;;;;;;;-0.40;67.53;100977.50;5063052;28;20426;-65
2021/03/10 01:52:55;;;;;;;0.85;0.85;;;;;;;-0.12;66.89;100970.22;5063259;28;20021;-64
2021/03/10 01:55:21;;;;;;;2.38;1.13;;;;;;;-0.38;67.53;100980.13;5062677;28;20032;-66
2021/03/10 01:57:47;;;;;;;3.15;1.40;;;;;;;-0.53;67.70;100962.47;5062670;28;20041;-65
2021/03/10 02:00:13;;;;;;;1.38;1.00;;;;;;;-0.48;67.74;100967.78;5045010;28;20029;-65
2021/03/10 02:02:39;;;;;;;1.27;0.90;;;;;;;-0.40;67.72;100969.00;5063001;28;20049;-67
2021/03/10 02:05:06;;;;;;;3.00;1.23;;;;;;;-0.57;67.63;100974.19;5064467;28;20491;-66
2021/03/10 02:07:35;;;;;;;1.75;0.90;;;;;;;-0.61;68.10;100972.31;5066794;28;20306;-65
2021/03/10 02:10:31;;;;;;;2.42;1.40;;;;;;;-0.61;68.38;100969.75;5066777;28;20381;-65
2021/03/10 02:13:18;;;;;;;3.70;1.20;;;;;;;-0.75;68.49;100969.97;5066839;28;20016;-64
2021/03/10 02:15:52;;;;;;;1.33;1.10;;;;;;;-0.71;68.62;100965.00;5066646;28;20358;-64
2021/03/10 02:18:32;;;;;;;3.80;1.40;;;;;;;-0.63;68.34;100963.69;5066482;28;20111;-66
2021/03/10 02:20:59;;;;;;;3.08;1.55;;;;;;;-0.64;68.30;100951.75;5065037;28;20032;-64
2021/03/10 02:23:28;;;;;;;1.52;1.13;;;;;;;-0.81;68.86;100954.38;5066572;28;20021;-66
2021/03/10 02:26:21;;;;;;;1.35;0.82;;;;;;;-0.60;68.47;100951.09;5066048;28;20090;-64
2021/03/10 02:28:48;;;;;;;2.10;1.23;;;;;;;-0.83;68.81;100957.69;5066321;28;20021;-64
2021/03/10 02:31:15;;;;;;;2.15;1.00;;;;;;;-0.89;68.82;100948.94;5066395;28;20551;-64
2021/03/10 02:33:42;;;;;;;3.55;1.63;;;;;;;-0.97;69.16;100951.91;5066330;28;20055;-64
2021/03/10 02:36:12;;;;;;;1.95;1.25;;;;;;;-1.01;69.53;100954.31;5065924;28;20032;-64
2021/03/10 02:38:45;;;;;;;6.80;1.23;;;;;;;-1.02;69.51;100950.00;5066113;28;20032;-64
2021/03/10 02:41:12;;;;;;;1.17;0.95;;;;;;;-0.98;69.44;100945.06;5065961;28;20021;-65
2021/03/10 02:43:39;;;;;;;2.40;1.00;;;;;;;-1.03;69.68;100948.28;5066087;28;20029;-65
2021/03/10 02:46:06;;;;;;;1.33;1.10;;;;;;;-1.09;70.08;100948.00;5048033;28;20040;-65
2021/03/10 02:48:33;;;;;;;1.52;1.30;;;;;;;-1.09;69.85;100930.16;5066120;28;20380;-67
2021/03/10 02:51:00;;;;;;;0.85;0.82;;;;;;;-1.02;69.74;100926.19;5065932;28;20033;-65
2021/03/10 02:53:26;;;;;;;3.60;1.10;;;;;;;-1.03;69.73;100935.53;5065933;28;20021;-65
2021/03/10 02:55:52;;;;;;;4.97;3.08;;;;;;;-1.08;70.02;100933.56;5065610;28;20039;-64
2021/03/10 02:58:17;;;;;;;2.55;1.05;;;;;;;-1.20;70.45;100934.72;5065627;28;20044;-64
2021/03/10 03:00:43;;;;;;;1.08;0.98;;;;;;;-0.94;69.67;100934.22;5065642;28;20032;-65
2021/03/10 03:03:08;;;;;;;1.58;1.00;;;;;;;-1.15;70.24;100932.41;5065721;28;20025;-66
2021/03/10 03:05:34;;;;;;;0.75;0.60;;;;;;;-1.14;70.61;100935.03;5065597;28;20350;-68
2021/03/10 03:08:01;;;;;;;1.60;1.02;;;;;;;-1.25;70.71;100938.72;5065633;28;20032;-66
2021/03/10 03:10:37;;;;;;;1.67;0.90;;;;;;;-1.22;70.54;100936.31;5065398;28;20052;-65
2021/03/10 03:13:09;;;;;;;0.70;0.60;;;;;;;-1.05;70.38;100938.78;5065875;28;20044;-64
2021/03/10 03:15:36;;;;;;;1.20;0.80;;;;;;;-1.23;70.58;100939.66;5064987;28;20029;-64
2021/03/10 03:18:03;;;;;;;5.53;1.30;;;;;;;-1.26;70.61;100939.50;5064690;28;20044;-65
2021/03/10 03:20:29;;;;;;;1.20;1.10;;;;;;;-1.08;70.35;100931.88;5065001;28;20028;-65
2021/03/10 03:22:56;;;;;;;2.15;1.27;;;;;;;-1.23;71.06;100946.44;5065260;28;20110;-64
2021/03/10 03:25:27;;;;;;;3.75;1.63;;;;;;;-1.28;70.71;100947.06;5064761;28;20037;-65
2021/03/10 03:27:55;;;;;;;2.20;1.10;;;;;;;-1.28;70.58;100946.22;5065206;28;20025;-64
2021/03/10 03:30:24;;;;;;;3.88;0.93;;;;;;;-1.26;70.75;100948.03;5065082;28;20237;-64
2021/03/10 03:32:52;;;;;;;1.90;0.93;;;;;;;-1.23;70.67;100943.91;5065108;28;20072;-64
2021/03/10 03:35:19;;;;;;;1.45;1.15;;;;;;;-1.36;70.92;100953.50;5065252;28;20024;-64
2021/03/10 03:37:50;;;;;;;3.63;1.10;;;;;;;-1.27;70.57;100938.66;5065064;28;20029;-65
2021/03/10 03:40:21;;;;;;;1.58;0.93;;;;;;;-1.28;70.76;100941.13;5046704;28;20021;-64
2021/03/10 03:42:47;;;;;;;2.83;1.55;;;;;;;-1.43;71.12;100941.22;5065021;28;20031;-65
2021/03/10 03:45:16;;;;;;;3.13;1.00;;;;;;;-1.54;71.61;100946.69;5064814;28;20025;-64
2021/03/10 03:47:41;;;;;;;1.75;1.48;;;;;;;-1.70;71.86;100937.41;5064854;28;20020;-64
2021/03/10 03:50:09;;;;;;;2.00;1.20;;;;;;;-1.81;72.22;100941.06;5046899;28;20035;-65
2021/03/10 03:52:39;;;;;;;3.63;1.52;;;;;;;-1.85;72.04;100937.47;5064838;28;20021;-64
2021/03/10 03:55:05;;;;;;;1.63;0.90;;;;;;;-1.81;72.20;100941.06;5065016;28;20696;-65
2021/03/10 03:57:31;;;;;;;2.13;1.23;;;;;;;-1.72;71.93;100938.97;5064340;28;20364;-65
2021/03/10 03:59:56;;;;;;;2.63;1.30;;;;;;;-1.87;72.21;100936.56;5064505;28;20024;-65
2021/03/10 04:02:21;;;;;;;3.33;1.35;;;;;;;-1.90;72.28;100949.97;5064714;28;20037;-65
2021/03/10 04:04:47;;;;;;;3.50;1.10;;;;;;;-1.98;72.73;100955.47;5064544;28;20031;-65
2021/03/10 04:07:12;;;;;;;1.55;1.08;;;;;;;-1.83;72.14;100955.38;5064473;28;20096;-65
2021/03/10 04:09:37;;;;;;;3.28;1.75;;;;;;;-1.95;72.21;100951.41;5046518;28;20032;-65
2021/03/10 04:12:03;;;;;;;2.47;1.20;;;;;;;-1.88;72.22;100952.59;5064196;28;20020;-66
2021/03/10 04:14:29;;;;;;;8.60;1.05;;;;;;;-1.69;71.79;100949.31;5064703;28;20052;-66
2021/03/10 04:16:54;;;;;;;1.15;0.88;;;;;;;-1.55;71.13;100947.47;5064359;28;20517;-64
2021/03/10 04:19:19;;;;;;;2.55;1.25;;;;;;;-1.87;71.97;100944.19;5064177;28;20037;-64
2021/03/10 04:21:45;;;;;;;2.08;1.10;;;;;;;-1.93;72.18;100943.88;5064311;28;20052;-65
2021/03/10 04:24:10;;;;;;;2.47;1.65;;;;;;;-1.90;72.03;100949.13;5064375;28;20063;-64
2021/03/10 04:26:36;;;;;;;3.10;1.40;;;;;;;-1.85;71.88;100949.34;5063595;28;20049;-65
2021/03/10 04:29:01;;;;;;;1.75;1.23;;;;;;;-1.98;72.26;100947.84;5064056;28;20017;-63
2021/03/10 04:31:26;;;;;;;2.10;1.58;;;;;;;-2.03;72.62;100953.56;5064329;28;20032;-65
2021/03/10 04:33:52;;;;;;;2.55;1.50;;;;;;;-1.98;72.47;100951.25;5064079;28;20025;-64
2021/03/10 04:36:17;;;;;;;1.83;1.10;;;;;;;-1.94;72.01;100942.09;5063783;28;20036;-66
2021/03/10 04:38:43;;;;;;;2.30;1.10;;;;;;;-1.83;72.02;100946.09;5062718;28;20025;-65
2021/03/10 04:41:08;;;;;;;1.77;1.27;;;;;;;-1.98;72.26;100953.78;5063705;28;20035;-65
2021/03/10 04:43:33;;;;;;;0.90;0.73;;;;;;;-1.86;71.68;100948.47;5064040;28;20025;-65
2021/03/10 04:45:59;;;;;;;6.10;1.70;;;;;;;-2.03;72.46;100943.38;5064008;28;20028;-64
2021/03/10 04:48:24;;;;;;;1.02;0.77;;;;;;;-1.97;72.48;100941.94;5063769;28;20115;-65
2021/03/10 04:50:50;;;;;;;4.63;1.77;;;;;;;-2.08;72.49;100952.47;5063567;28;20035;-65
2021/03/10 04:53:15;;;;;;;4.35;1.70;;;;;;;-2.05;72.74;100954.28;5063536;28;20356;-66
2021/03/10 04:55:40;;;;;;;4.63;1.67;;;;;;;-2.08;72.72;100960.09;5063243;28;20051;-64
2021/03/10 04:58:07;;;;;;;1.55;1.38;;;;;;;-2.11;72.86;100947.22;5045546;28;20599;-64
2021/03/10 05:00:32;;;;;;;2.70;1.75;;;;;;;-2.10;72.72;100941.31;5045490;28;20023;-65
2021/03/10 05:02:58;;;;;;;3.63;2.50;;;;;;;-2.14;72.81;100949.59;5063496;28;20029;-65
2021/03/10 05:05:23;;;;;;;3.05;1.75;;;;;;;-2.15;72.90;100952.91;5063508;28;20017;-64
2021/03/10 05:07:49;;;;;;;1.05;0.95;;;;;;;-2.13;72.82;100958.97;5063320;28;20032;-64
2021/03/10 05:10:15;;;;;;;4.55;1.92;;;;;;;-2.17;72.78;100955.38;5063217;28;20017;-65
2021/03/10 05:12:40;;;;;;;4.07;1.85;;;;;;;-2.06;72.76;100967.81;5063432;28;20029;-70
2021/03/10 05:15:07;;;;;;;2.63;1.95;;;;;;;-2.08;72.62;100971.94;5062087;28;20436;-68
2021/03/10 05:17:32;;;;;;;2.38;1.50;;;;;;;-2.17;72.68;100973.19;5063345;28;20029;-65
2021/03/10 05:19:58;;;;;;;2.30;1.20;;;;;;;-2.22;72.92;100971.22;5063296;28;20060;-66
2021/03/10 05:22:27;;;;;;;3.25;2.00;;;;;;;-2.28;73.17;100970.09;5063162;28;20060;-69
2021/03/10 05:24:54;;;;;;;4.13;1.38;;;;;;;-2.26;73.30;100975.25;5045162;28;20084;-65
2021/03/10 05:27:19;;;;;;;6.47;2.10;;;;;;;-2.33;73.24;100952.84;5063375;28;20060;-65
2021/03/10 05:29:45;;;;;;;2.13;1.52;;;;;;;-2.26;73.29;100962.53;5063331;28;20043;-64
2021/03/10 05:32:11;;;;;;;2.33;1.48;;;;;;;-2.32;73.17;100959.66;5063474;28;20021;-64
2021/03/10 05:34:36;;;;;;;4.43;2.58;;;;;;;-2.29;73.23;100955.63;5063239;28;20035;-64
2021/03/10 05:37:02;;;;;;;5.50;2.22;;;;;;;-2.41;73.47;100958.38;5063340;28;20584;-66
2021/03/10 05:39:28;;;;;;;2.92;1.88;;;;;;;-2.24;73.06;100953.31;5063752;28;20032;-64
2021/03/10 05:41:56;;;;;;;4.75;2.53;;;;;;;-2.35;73.28;100962.06;5067452;28;20022;-64
2021/03/10 05:44:23;;;;;;;3.22;1.80;;;;;;;-2.37;73.50;100967.06;5068408;28;20020;-64
2021/03/10 05:46:48;;;;;;;3.88;2.75;;;;;;;-2.34;73.68;100976.50;5067806;28;20029;-65
2021/03/10 05:49:14;;;;;;;1.73;1.30;;;;;;;-2.35;73.61;100985.81;5067839;28;20020;-64
2021/03/10 05:51:39;;;;;;;4.65;2.15;;;;;;;-2.25;73.45;100972.78;5067590;28;20021;-64
2021/03/10 05:54:05;;;;;;;3.30;2.20;;;;;;;-2.27;73.87;100976.91;5067473;28;20077;-65
2021/03/10 05:56:32;;;;;;;1.35;1.00;;;;;;;-2.12;73.29;100965.78;5067124;28;20036;-65
2021/03/10 05:58:59;;;;;;;3.50;1.65;;;;;;;-1.88;72.60;100978.94;5067468;28;20110;-65
2021/03/10 06:01:24;;;;;;;2.85;1.80;;;;;;;-1.68;72.81;100976.56;5067220;28;20029;-64
2021/03/10 06:04:01;;;;;;;2.38;1.77;;;;;;;-1.76;72.71;100978.69;5067039;28;20052;-65
2021/03/10 06:06:41;;;;;;;2.55;2.00;;;;;;;-1.88;72.59;100983.13;5066932;28;20495;-64
2021/03/10 06:09:14;;;;;;;1.27;0.80;;;;;;;-1.83;72.91;100983.38;5067293;28;20028;-63
2021/03/10 06:11:52;;;;;;;5.60;4.03;;;;;;;-1.86;72.61;100991.75;5066341;28;20024;-64
2021/03/10 06:14:18;;;;;;;1.90;1.40;;;;;;;-1.96;73.11;100976.78;5067013;28;20118;-64
2021/03/10 06:16:43;;;;;;;5.50;2.13;;;;;;;-1.94;73.21;100978.63;5066674;28;20689;-64
2021/03/10 06:19:09;;;;;;;4.35;1.77;;;;;;;-1.94;73.10;100965.91;5066657;28;20047;-64
2021/03/10 06:21:34;;;;;;;4.45;2.05;;;;;;;-1.70;71.97;100955.22;5066507;28;20025;-64
2021/03/10 06:24:02;;;;;;;3.40;1.95;;;;;;;-1.82;72.60;100964.78;5066579;28;20469;-64
2021/03/10 06:26:35;;;;;;;1.65;1.23;;;;;;;-1.64;72.19;100962.28;5065959;28;20112;-65
2021/03/10 06:29:12;;;;;;;4.88;2.05;;;;;;;-1.56;71.96;100948.28;5066367;28;20024;-65
2021/03/10 06:31:38;;;;;;;2.22;1.60;;;;;;;-1.29;72.46;100952.09;5066191;28;20071;-64
2021/03/10 06:34:06;;;;;;;3.13;1.80;;;;;;;-0.96;72.11;100958.75;5066371;28;20032;-65
2021/03/10 06:36:50;;;;;;;3.47;1.90;;;;;;;-0.73;70.93;100966.59;5066059;28;20036;-65
2021/03/10 06:39:30;;;;;;;3.92;1.90;;;;;;;-0.53;70.14;100960.75;5048034;28;20082;-65
2021/03/10 06:41:57;;;;;;;4.05;1.70;;;;;;;-0.39;70.80;100956.31;5065952;28;20098;-65
2021/03/10 06:44:25;;;;;;;2.28;1.50;;;;;;;0.11;70.63;100952.50;5066095;28;20110;-64
2021/03/10 06:46:53;;;;;;;1.20;1.00;;;;;;;0.71;67.05;100953.25;5066080;28;20048;-66
2021/03/10 06:49:19;;;;;;;3.05;1.17;;;;;;;0.70;66.13;100936.19;5066487;28;20364;-65
2021/03/10 06:51:59;;;;;;;2.85;1.60;;;;;;;0.64;65.05;100936.81;5066065;28;20037;-64
2021/03/10 06:54:25;;;;;;;1.98;1.40;;;;;;;0.70;67.00;100944.72;5066110;28;20045;-65
2021/03/10 06:57:09;;;;;;;1.52;1.00;;;;;;;1.30;62.59;100935.13;5065789;28;20020;-64
2021/03/10 06:59:50;;;;;;;3.67;1.70;;;;;;;0.97;63.29;100944.13;5065963;28;20029;-65
2021/03/10 07:02:21;;;;;;;3.65;2.00;;;;;;;1.04;63.92;100950.31;5066118;28;20021;-66
2021/03/10 07:04:58;;;;;;;1.63;1.23;;;;;;;1.21;62.51;100951.00;5066000;28;20108;-65
2021/03/10 07:07:25;;;;;;;3.42;1.42;;;;;;;1.29;61.56;100942.75;5065695;28;20043;-65
2021/03/10 07:09:51;;;;;;;1.30;1.23;;;;;;;1.46;60.78;100931.47;5065801;28;20017;-66
2021/03/10 07:12:19;;;;;;;1.15;0.75;;;;;;;1.61;60.16;100922.63;5065369;28;20481;-65
2021/03/10 07:14:46;;;;;;;1.83;1.23;;;;;;;1.64;59.85;100924.41;5065707;28;20325;-66
2021/03/10 07:17:13;;;;;;;1.27;1.05;;;;;;;1.52;60.54;100919.72;5047460;28;20021;-64
2021/03/10 07:19:40;;;;;;;2.08;1.30;;;;;;;2.13;57.72;100911.59;5065651;28;20094;-65
2021/03/10 07:22:14;;;;;;;1.88;1.35;;;;;;;2.02;58.39;100918.91;5065465;28;20080;-66
2021/03/10 07:24:49;;;;;;;1.00;0.88;;;;;;;1.84;58.15;100907.19;5065559;28;20021;-66
2021/03/10 07:27:16;;;;;;;4.18;1.40;;;;;;;1.92;59.78;100895.53;5065212;28;20056;-65
2021/03/10 07:29:42;;;;;;;1.45;1.10;;;;;;;2.12;60.10;100897.06;5065657;28;20012;-65
2021/03/10 07:32:09;;;;;;;1.92;1.40;;;;;;;2.87;55.85;100905.47;5065502;28;20027;-65
2021/03/10 07:34:35;;;;;;;2.65;1.70;;;;;;;2.62;56.56;100907.22;5065431;28;20039;-64
2021/03/10 07:37:14;;;;;;;1.75;1.45;;;;;;;2.64;56.10;100913.28;5047449;28;20017;-65
2021/03/10 07:39:40;;;;;;;3.28;1.40;;;;;;;2.52;57.57;100913.78;5065102;28;20025;-64
2021/03/10 07:42:10;;;;;;;1.95;1.40;;;;;;;2.75;55.87;100923.88;5065144;28;20453;-66
2021/03/10 07:44:35;;;;;;;2.28;1.55;;;;;;;2.44;57.10;100916.09;5065201;28;20025;-65
2021/03/10 07:47:14;;;;;;;3.05;1.33;;;;;;;2.73;55.00;100918.72;5064891;28;20049;-65
2021/03/10 07:49:41;;;;;;;1.75;1.42;;;;;;;2.18;56.90;100918.63;5065061;28;20032;-65
2021/03/10 07:52:14;;;;;;;3.80;1.95;;;;;;;2.15;57.02;100915.09;5064768;28;20029;-65
2021/03/10 07:54:40;;;;;;;1.83;1.15;;;;;;;2.26;55.90;100921.44;5047223;28;20432;-65
2021/03/10 07:57:10;;;;;;;2.10;1.42;;;;;;;1.89;58.14;100944.09;5063254;28;20039;-65
2021/03/10 07:59:51;;;;;;;1.73;1.20;;;;;;;2.06;57.26;100938.69;5064703;28;20558;-65
2021/03/10 08:02:17;;;;;;;1.30;1.15;;;;;;;2.04;57.69;100924.97;5064280;28;20084;-66
2021/03/10 08:04:56;;;;;;;2.05;1.63;;;;;;;1.83;58.25;100949.00;5064655;28;20029;-66
2021/03/10 08:07:29;;;;;;;2.53;1.70;;;;;;;1.67;58.98;100930.50;5064585;28;20021;-64
2021/03/10 08:09:55;;;;;;;2.42;1.60;;;;;;;1.75;59.26;100935.03;5064645;28;20021;-65
2021/03/10 08:12:35;;;;;;;9.15;1.70;;;;;;;1.77;60.01;100931.72;5064384;28;20090;-65
2021/03/10 08:15:01;;;;;;;3.88;1.63;;;;;;;2.05;59.47;100962.56;5064837;28;20024;-65
2021/03/10 08:17:28;;;;;;;3.85;1.67;;;;;;;2.13;59.14;100943.22;5064579;28;20029;-66
2021/03/10 08:20:04;;;;;;;4.50;1.02;;;;;;;2.74;57.62;100934.97;5064641;28;20020;-66
2021/03/10 08:22:31;;;;;;;1.88;1.02;;;;;;;2.89;55.49;100924.31;5064538;28;20059;-65
2021/03/10 08:24:59;;;;;;;1.17;0.95;;;;;;;2.77;55.41;100935.06;5064201;28;20036;-65
2021/03/10 08:27:35;;;;;;;0.93;0.82;;;;;;;2.20;56.97;100931.50;5046308;28;20505;-65
2021/03/10 08:30:03;;;;;;;3.25;2.53;;;;;;;1.70;59.28;100927.19;5064224;28;20025;-66
2021/03/10 08:32:30;;;;;;;4.25;1.35;;;;;;;2.14;58.89;100923.59;5064140;28;20047;-65
2021/03/10 08:35:14;;;;;;;2.83;1.50;;;;;;;2.15;58.87;100922.78;5062697;28;20032;-65
2021/03/10 08:37:41;;;;;;;1.98;1.67;;;;;;;2.13;58.06;100914.16;5064039;28;20029;-65
2021/03/10 08:40:10;;;;;;;1.13;0.98;;;;;;;2.47;57.21;100915.31;5046007;28;20107;-66
2021/03/10 08:42:35;;;;;;;3.03;1.80;;;;;;;1.93;58.62;100902.38;5063862;28;20024;-66
2021/03/10 08:45:01;;;;;;;2.35;1.50;;;;;;;2.05;58.24;100908.75;5064058;28;20376;-65
2021/03/10 08:47:27;;;;;;;3.08;1.58;;;;;;;1.84;59.21;100902.94;5063903;28;20249;-65
2021/03/10 08:49:55;;;;;;;3.45;1.90;;;;;;;1.85;58.72;100893.59;5064069;28;20024;-65
2021/03/10 08:52:22;;;;;;;7.05;2.13;;;;;;;1.65;59.79;100887.75;5064012;28;20025;-66
2021/03/10 08:54:51;;;;;;;2.50;1.90;;;;;;;1.77;60.10;100880.53;5063777;28;20036;-66
2021/03/10 08:57:18;;;;;;;3.33;1.73;;;;;;;1.74;60.34;100867.63;5063617;28;20479;-65
2021/03/10 08:59:44;;;;;;;3.58;2.10;;;;;;;1.94;59.70;100868.31;5063783;28;20112;-65
2021/03/10 09:02:11;;;;;;;3.22;1.60;;;;;;;1.96;59.28;100856.44;5063905;28;20037;-65
2021/03/10 09:04:37;;;;;;;3.78;2.00;;;;;;;1.73;59.85;100859.06;5063867;28;20021;-64
2021/03/10 09:07:03;;;;;;;1.75;1.10;;;;;;;1.89;59.57;100846.78;5045813;28;20025;-65
2021/03/10 09:09:33;;;;;;;3.38;1.58;;;;;;;1.76;60.14;100855.72;5063713;28;20381;-66
2021/03/10 09:11:59;;;;;;;2.55;1.63;;;;;;;1.67;60.02;100852.84;5063492;28;20028;-64
2021/03/10 09:14:24;;;;;;;6.38;2.00;;;;;;;1.54;61.21;100856.66;5062745;28;20029;-65
2021/03/10 09:16:58;;;;;;;2.33;1.55;;;;;;;2.03;59.80;100847.25;5063469;28;20136;-65
2021/03/10 09:19:37;;;;;;;4.10;1.90;;;;;;;2.25;58.90;100862.47;5063607;28;20116;-66
2021/03/10 09:22:09;;;;;;;24.70;2.85;;;;;;;2.14;58.57;100839.91;5063574;28;20063;-65
2021/03/10 09:24:52;;;;;;;2.33;1.10;;;;;;;1.85;59.46;100834.69;5063579;28;20016;-65
2021/03/10 09:27:24;;;;;;;2.83;1.42;;;;;;;1.64;59.95;100840.81;5062864;28;20365;-65
2021/03/10 09:29:51;;;;;;;2.60;1.48;;;;;;;1.34;60.94;100831.22;5063449;28;20048;-65
2021/03/10 09:32:17;;;;;;;1.35;1.10;;;;;;;1.66;60.52;100830.63;5063581;28;20039;-65
2021/03/10 09:34:53;;;;;;;1.70;1.40;;;;;;;1.38;61.57;100834.75;5063509;28;20084;-65
2021/03/10 09:37:24;;;;;;;2.65;1.60;;;;;;;1.68;60.90;100840.09;5063398;28;20029;-67
2021/03/10 09:39:53;;;;;;;3.13;1.88;;;;;;;1.63;61.15;100845.88;5063318;28;20049;-68
2021/03/10 09:42:19;;;;;;;3.47;1.70;;;;;;;1.41;61.50;100842.53;5063104;28;20032;-65
2021/03/10 09:44:51;;;;;;;2.35;1.80;;;;;;;1.32;62.06;100846.53;5063262;28;20021;-66
2021/03/10 09:47:24;;;;;;;3.15;1.60;;;;;;;1.59;61.64;100838.09;5063187;28;20108;-66
2021/03/10 09:49:58;;;;;;;1.42;1.13;;;;;;;1.35;62.07;100836.41;5045411;28;20032;-67
2021/03/10 09:52:37;;;;;;;2.58;1.40;;;;;;;1.48;62.18;100824.91;5063200;28;20031;-66
2021/03/10 09:55:10;;;;;;;4.55;1.40;;;;;;;1.32;62.70;100814.94;5063403;28;20029;-65
2021/03/10 09:57:36;;;;;;;4.45;1.40;;;;;;;1.68;61.59;100832.41;5063138;28;20084;-65
2021/03/10 10:00:04;;;;;;;3.17;1.60;;;;;;;1.55;61.95;100832.81;5063407;28;20032;-65
2021/03/10 10:02:30;;;;;;;3.67;1.30;;;;;;;1.71;61.07;100824.00;5063352;28;20036;-65
2021/03/10 10:05:00;;;;;;;2.38;1.25;;;;;;;1.77;61.58;100847.25;5063382;28;20029;-64
2021/03/10 10:07:28;;;;;;;2.95;2.05;;;;;;;1.47;61.97;100840.22;5063070;28;20043;-68
2021/03/10 10:09:54;;;;;;;4.40;2.67;;;;;;;1.65;61.91;100832.31;5063205;28;20024;-64
2021/03/10 10:12:20;;;;;;;6.30;1.67;;;;;;;1.68;61.88;100824.72;5062811;28;20063;-66
2021/03/10 10:14:46;;;;;;;1.85;1.63;;;;;;;1.85;61.42;100832.13;5063614;28;20021;-66
2021/03/10 10:17:12;;;;;;;2.00;1.10;;;;;;;1.84;61.61;100838.94;5063015;28;20027;-66
2021/03/10 10:19:37;;;;;;;1.73;1.50;;;;;;;1.69;61.81;100816.22;5062841;28;20023;-65
2021/03/10 10:22:03;;;;;;;2.72;1.50;;;;;;;2.06;60.54;100826.00;5044980;28;20044;-65
2021/03/10 10:24:28;;;;;;;1.25;1.02;;;;;;;1.96;60.76;100829.94;5063003;28;20052;-65
2021/03/10 10:26:54;;;;;;;3.75;1.80;;;;;;;1.70;61.96;100829.91;5065176;28;20045;-66
2021/03/10 10:29:19;;;;;;;2.58;2.10;;;;;;;1.82;61.72;100822.66;5066660;28;20021;-66
2021/03/10 10:31:45;;;;;;;3.38;1.95;;;;;;;2.08;60.71;100832.91;5066541;28;20029;-67
2021/03/10 10:34:10;;;;;;;2.38;1.48;;;;;;;1.91;61.08;100816.09;5066373;28;20055;-64
2021/03/10 10:36:36;;;;;;;2.90;1.95;;;;;;;1.73;62.19;100812.97;5066132;28;20025;-64
2021/03/10 10:39:01;;;;;;;5.32;1.63;;;;;;;2.06;61.03;100808.06;5066248;28;20017;-65
2021/03/10 10:41:27;;;;;;;5.57;2.78;;;;;;;1.96;61.32;100814.56;5066102;28;20058;-65
2021/03/10 10:43:52;;;;;;;3.03;1.83;;;;;;;2.27;61.04;100815.56;5066470;28;20025;-64
2021/03/10 10:46:17;;;;;;;3.10;2.05;;;;;;;2.23;60.54;100814.63;5066229;28;20017;-65
2021/03/10 10:48:43;;;;;;;5.07;2.00;;;;;;;1.97;61.64;100800.94;5066490;28;20021;-64
2021/03/10 10:51:08;;;;;;;5.88;2.58;;;;;;;1.97;62.36;100795.81;5065965;28;20036;-64
2021/03/10 10:53:33;;;;;;;5.80;2.15;;;;;;;2.62;59.20;100794.44;5065804;28;20025;-65
2021/03/10 10:55:59;;;;;;;8.75;2.75;;;;;;;2.28;60.05;100784.03;5065893;28;20046;-66
2021/03/10 10:58:24;;;;;;;8.50;3.25;;;;;;;2.43;59.38;100795.59;5065941;28;20385;-64
2021/03/10 11:00:50;;;;;;;7.60;4.18;;;;;;;2.33;59.44;100785.03;5066003;28;20021;-66
2021/03/10 11:03:15;;;;;;;11.23;4.57;;;;;;;2.40;59.58;100786.09;5065933;28;20021;-66
2021/03/10 11:05:41;;;;;;;3.17;1.48;;;;;;;2.82;57.90;100763.41;5065927;28;20052;-65
2021/03/10 11:08:06;;;;;;;5.30;2.80;;;;;;;3.14;55.77;100775.41;5065854;28;20048;-66
2021/03/10 11:10:31;;;;;;;2.47;1.70;;;;;;;2.85;57.24;100773.75;5065824;28;20376;-66
2021/03/10 11:12:57;;;;;;;2.70;1.60;;;;;;;2.81;57.52;100772.78;5065485;28;20109;-66
2021/03/10 11:15:22;;;;;;;4.50;2.58;;;;;;;2.89;57.23;100765.31;5065682;28;20036;-65
2021/03/10 11:17:48;;;;;;;6.75;2.85;;;;;;;2.82;56.42;100768.53;5065560;28;20021;-65
2021/03/10 11:20:14;;;;;;;4.75;2.97;;;;;;;2.62;57.29;100776.50;5065482;28;20091;-64
2021/03/10 11:22:42;;;;;;;4.80;2.85;;;;;;;2.51;57.82;100757.38;5065608;28;20029;-64
2021/03/10 11:25:09;;;;;;;1.90;1.48;;;;;;;2.94;54.93;100768.88;5065261;28;20449;-65
2021/03/10 11:27:35;;;;;;;3.72;2.53;;;;;;;2.84;55.09;100767.75;5065271;28;20025;-65
2021/03/10 11:30:03;;;;;;;7.82;2.67;;;;;;;2.89;54.49;100752.50;5047194;28;20024;-67
2021/03/10 11:32:29;;;;;;;5.80;2.25;;;;;;;2.98;53.43;100754.47;5065397;28;20025;-66